createdAt,value
2019-05-15T00:00:38.689Z,1017.74
2019-05-15T00:01:41.062Z,1017.75
2019-05-15T00:02:38.801Z,1017.75
2019-05-15T00:03:39.091Z,1017.75
2019-05-15T00:04:38.352Z,1017.77
2019-05-15T00:05:39.020Z,1017.79
2019-05-15T00:06:39.098Z,1017.75
2019-05-15T00:07:39.205Z,1017.75
2019-05-15T00:08:38.669Z,1017.71
2019-05-15T00:09:41.648Z,1017.75
2019-05-15T00:10:38.881Z,1017.74
2019-05-15T00:11:38.958Z,1017.73
2019-05-15T00:12:39.569Z,1017.73
2019-05-15T00:13:38.953Z,1017.73
2019-05-15T00:14:38.872Z,1017.74
2019-05-15T00:15:39.796Z,1017.74
2019-05-15T00:16:38.597Z,1017.74
2019-05-15T00:17:39.512Z,1017.70
2019-05-15T00:18:39.073Z,1017.73
2019-05-15T00:19:38.894Z,1017.70
2019-05-15T00:20:39.498Z,1017.69
2019-05-15T00:21:38.257Z,1017.70
2019-05-15T00:22:38.868Z,1017.67
2019-05-15T00:23:38.709Z,1017.66
2019-05-15T00:24:38.181Z,1017.66
2019-05-15T00:25:39.455Z,1017.62
2019-05-15T00:26:38.545Z,1017.65
2019-05-15T00:27:38.646Z,1017.61
2019-05-15T00:28:38.824Z,1017.63
2019-05-15T00:29:38.352Z,1017.57
2019-05-15T00:30:38.666Z,1017.62
2019-05-15T00:31:38.780Z,1017.56
2019-05-15T00:32:39.314Z,1017.61
2019-05-15T00:33:39.366Z,1017.55
2019-05-15T00:34:37.941Z,1017.55
2019-05-15T00:35:39.160Z,1017.58
2019-05-15T00:36:38.265Z,1017.60
2019-05-15T00:37:38.728Z,1017.62
2019-05-15T00:38:39.036Z,1017.57
2019-05-15T00:39:39.017Z,1017.58
2019-05-15T00:40:39.196Z,1017.56
2019-05-15T00:41:50.772Z,1017.58
2019-05-15T00:42:38.396Z,1017.57
2019-05-15T00:43:38.672Z,1017.53
2019-05-15T00:44:38.735Z,1017.52
2019-05-15T00:45:38.557Z,1017.51
2019-05-15T00:46:38.433Z,1017.49
2019-05-15T00:47:39.718Z,1017.51
2019-05-15T00:48:39.842Z,1017.46
2019-05-15T00:49:38.284Z,1017.50
2019-05-15T00:50:39.345Z,1017.48
2019-05-15T00:51:39.054Z,1017.45
2019-05-15T00:52:39.181Z,1017.46
2019-05-15T00:53:39.042Z,1017.45
2019-05-15T00:54:38.872Z,1017.45
2019-05-15T00:55:38.025Z,1017.47
2019-05-15T00:56:39.118Z,1017.44
2019-05-15T00:57:39.311Z,1017.39
2019-05-15T00:58:39.939Z,1017.40
2019-05-15T00:59:38.967Z,1017.37
2019-05-15T01:00:38.116Z,1017.36
2019-05-15T01:01:38.182Z,1017.36
2019-05-15T01:02:38.921Z,1017.35
2019-05-15T01:03:38.785Z,1017.32
2019-05-15T01:04:38.925Z,1017.36
2019-05-15T01:05:38.779Z,1017.37
2019-05-15T01:06:38.879Z,1017.32
2019-05-15T01:07:39.156Z,1017.34
2019-05-15T01:08:39.347Z,1017.36
2019-05-15T01:09:38.498Z,1017.39
2019-05-15T01:10:38.574Z,1017.37
2019-05-15T01:11:38.167Z,1017.35
2019-05-15T01:12:38.086Z,1017.32
2019-05-15T01:13:38.904Z,1017.35
2019-05-15T01:14:38.620Z,1017.31
2019-05-15T01:15:38.647Z,1017.28
2019-05-15T01:16:38.344Z,1017.29
2019-05-15T01:17:39.087Z,1017.31
2019-05-15T01:18:38.525Z,1017.32
2019-05-15T01:19:37.953Z,1017.34
2019-05-15T01:20:39.112Z,1017.29
2019-05-15T01:21:38.536Z,1017.34
2019-05-15T01:22:39.499Z,1017.32
2019-05-15T01:23:39.011Z,1017.29
2019-05-15T01:24:38.938Z,1017.29
2019-05-15T01:25:38.895Z,1017.33
2019-05-15T01:26:38.532Z,1017.29
2019-05-15T01:27:38.586Z,1017.31
2019-05-15T01:28:38.456Z,1017.29
2019-05-15T01:29:44.534Z,1017.30
2019-05-15T01:30:39.393Z,1017.30
2019-05-15T01:31:38.079Z,1017.26
2019-05-15T01:32:39.409Z,1017.30
2019-05-15T01:33:39.064Z,1017.27
2019-05-15T01:34:38.398Z,1017.28
2019-05-15T01:35:38.353Z,1017.27
2019-05-15T01:36:38.249Z,1017.22
2019-05-15T01:37:39.145Z,1017.23
2019-05-15T01:38:38.883Z,1017.20
2019-05-15T01:39:38.514Z,1017.20
2019-05-15T01:40:38.669Z,1017.19
2019-05-15T01:41:38.679Z,1017.18
2019-05-15T01:42:38.670Z,1017.19
2019-05-15T01:43:38.069Z,1017.14
2019-05-15T01:44:39.003Z,1017.17
2019-05-15T01:45:39.391Z,1017.13
2019-05-15T01:46:39.349Z,1017.16
2019-05-15T01:47:38.844Z,1017.16
2019-05-15T01:48:38.827Z,1017.19
2019-05-15T01:49:38.421Z,1017.15
2019-05-15T01:50:38.682Z,1017.17
2019-05-15T01:51:38.530Z,1017.13
2019-05-15T01:52:39.075Z,1017.11
2019-05-15T01:53:38.460Z,1017.06
2019-05-15T01:54:38.359Z,1017.13
2019-05-15T01:55:39.465Z,1017.14
2019-05-15T01:56:38.689Z,1017.11
2019-05-15T01:57:38.386Z,1017.12
2019-05-15T01:58:38.264Z,1017.10
2019-05-15T01:59:40.166Z,1017.08
2019-05-15T02:00:39.210Z,1017.10
2019-05-15T02:01:39.216Z,1017.14
2019-05-15T02:02:39.026Z,1017.10
2019-05-15T02:03:38.634Z,1017.15
2019-05-15T02:04:39.328Z,1017.15
2019-05-15T02:05:39.037Z,1017.15
2019-05-15T02:06:39.099Z,1017.12
2019-05-15T02:07:39.189Z,1017.17
2019-05-15T02:08:39.234Z,1017.21
2019-05-15T02:09:38.600Z,1017.15
2019-05-15T02:10:39.063Z,1017.13
2019-05-15T02:11:38.237Z,1017.15
2019-05-15T02:12:38.695Z,1017.13
2019-05-15T02:13:38.963Z,1017.11
2019-05-15T02:14:39.201Z,1017.12
2019-05-15T02:15:39.542Z,1017.12
2019-05-15T02:16:39.300Z,1017.08
2019-05-15T02:17:39.190Z,1017.06
2019-05-15T02:18:39.078Z,1017.08
2019-05-15T02:19:39.156Z,1017.09
2019-05-15T02:20:38.915Z,1017.07
2019-05-15T02:21:38.013Z,1017.10
2019-05-15T02:22:42.104Z,1017.10
2019-05-15T02:23:38.776Z,1017.06
2019-05-15T02:24:39.110Z,1017.10
2019-05-15T02:25:38.750Z,1017.08
2019-05-15T02:26:38.826Z,1017.08
2019-05-15T02:27:39.395Z,1017.10
2019-05-15T02:28:38.448Z,1017.12
2019-05-15T02:29:37.896Z,1017.16
2019-05-15T02:30:40.127Z,1017.12
2019-05-15T02:31:39.149Z,1017.12
2019-05-15T02:32:39.492Z,1017.10
2019-05-15T02:33:40.044Z,1017.16
2019-05-15T02:34:39.507Z,1017.13
2019-05-15T02:35:39.230Z,1017.13
2019-05-15T02:36:40.029Z,1017.12
2019-05-15T02:37:41.006Z,1017.12
2019-05-15T02:38:40.857Z,1017.17
2019-05-15T02:39:38.872Z,1017.14
2019-05-15T02:40:40.445Z,1017.09
2019-05-15T02:41:39.719Z,1017.09
2019-05-15T02:42:39.933Z,1017.11
2019-05-15T02:43:39.002Z,1017.08
2019-05-15T02:44:39.985Z,1017.12
2019-05-15T02:45:41.389Z,1017.14
2019-05-15T02:46:39.126Z,1017.12
2019-05-15T02:47:39.364Z,1017.14
2019-05-15T02:48:40.613Z,1017.11
2019-05-15T02:49:39.685Z,1017.14
2019-05-15T02:50:39.146Z,1017.12
2019-05-15T02:51:39.853Z,1017.13
2019-05-15T02:52:39.694Z,1017.15
2019-05-15T02:53:39.656Z,1017.12
2019-05-15T02:54:39.967Z,1017.12
2019-05-15T02:55:40.359Z,1017.12
2019-05-15T02:56:39.339Z,1017.14
2019-05-15T02:57:39.381Z,1017.12
2019-05-15T02:58:39.865Z,1017.13
2019-05-15T02:59:39.593Z,1017.10
2019-05-15T03:00:46.576Z,1017.12
2019-05-15T03:01:40.309Z,1017.10
2019-05-15T03:02:40.743Z,1017.07
2019-05-15T03:03:38.790Z,1017.07
2019-05-15T03:04:40.003Z,1017.08
2019-05-15T03:05:40.626Z,1017.05
2019-05-15T03:06:39.034Z,1017.06
2019-05-15T03:07:40.359Z,1017.08
2019-05-15T03:08:39.867Z,1017.05
2019-05-15T03:09:39.893Z,1017.04
2019-05-15T03:10:40.577Z,1017.01
2019-05-15T03:11:40.851Z,1017.02
2019-05-15T03:12:40.897Z,1017.02
2019-05-15T03:13:39.152Z,1017.05
2019-05-15T03:14:39.836Z,1017.04
2019-05-15T03:15:40.347Z,1017.04
2019-05-15T03:16:39.477Z,1017.02
2019-05-15T03:17:40.331Z,1017.03
2019-05-15T03:18:39.690Z,1016.98
2019-05-15T03:19:39.266Z,1017.01
2019-05-15T03:20:38.755Z,1016.99
2019-05-15T03:21:38.856Z,1016.99
2019-05-15T03:22:40.021Z,1016.99
2019-05-15T03:23:40.526Z,1016.98
2019-05-15T03:24:39.653Z,1017.00
2019-05-15T03:25:40.359Z,1016.97
2019-05-15T03:26:39.482Z,1016.95
2019-05-15T03:27:39.598Z,1016.94
2019-05-15T03:28:39.094Z,1016.94
2019-05-15T03:29:40.268Z,1016.99
2019-05-15T03:31:07.085Z,1016.98
2019-05-15T03:31:56.722Z,1016.98
2019-05-15T03:32:50.737Z,1016.98
2019-05-15T03:33:44.712Z,1016.97
2019-05-15T03:34:46.208Z,1017.00
2019-05-15T03:35:43.315Z,1016.99
2019-05-15T03:36:37.684Z,1017.01
2019-05-15T03:37:39.836Z,1017.03
2019-05-15T03:38:39.361Z,1017.01
2019-05-15T03:39:39.308Z,1016.99
2019-05-15T03:40:39.685Z,1017.04
2019-05-15T03:41:39.301Z,1017.04
2019-05-15T03:42:39.385Z,1016.98
2019-05-15T03:43:39.337Z,1016.96
2019-05-15T03:44:39.321Z,1017.01
2019-05-15T03:45:40.344Z,1016.96
2019-05-15T03:46:39.827Z,1016.97
2019-05-15T03:47:40.146Z,1016.96
2019-05-15T03:48:40.355Z,1016.94
2019-05-15T03:49:39.681Z,1016.98
2019-05-15T03:50:40.190Z,1016.95
2019-05-15T03:51:42.394Z,1016.94
2019-05-15T03:52:39.403Z,1016.91
2019-05-15T03:53:40.039Z,1016.90
2019-05-15T03:54:39.197Z,1016.93
2019-05-15T03:55:40.456Z,1016.92
2019-05-15T03:56:39.262Z,1016.94
2019-05-15T03:57:39.925Z,1016.91
2019-05-15T03:58:40.126Z,1016.92
2019-05-15T03:59:39.898Z,1016.92
2019-05-15T04:00:39.552Z,1016.90
2019-05-15T04:01:43.051Z,1016.92
2019-05-15T04:02:39.360Z,1016.96
2019-05-15T04:03:39.027Z,1016.93
2019-05-15T04:04:38.810Z,1016.95
2019-05-15T04:05:38.952Z,1016.93
2019-05-15T04:06:39.150Z,1017.00
2019-05-15T04:07:39.778Z,1016.96
2019-05-15T04:08:39.146Z,1016.92
2019-05-15T04:09:38.681Z,1016.98
2019-05-15T04:10:40.011Z,1016.94
2019-05-15T04:11:38.810Z,1016.98
2019-05-15T04:12:40.243Z,1016.98
2019-05-15T04:13:39.577Z,1017.02
2019-05-15T04:14:39.499Z,1016.97
2019-05-15T04:15:39.504Z,1016.92
2019-05-15T04:16:39.050Z,1016.93
2019-05-15T04:17:40.173Z,1016.97
2019-05-15T04:18:39.623Z,1016.95
2019-05-15T04:19:39.109Z,1017.00
2019-05-15T04:20:40.481Z,1016.97
2019-05-15T04:21:41.434Z,1016.98
2019-05-15T04:22:39.951Z,1016.95
2019-05-15T04:23:39.123Z,1016.98
2019-05-15T04:24:39.438Z,1016.98
2019-05-15T04:25:39.205Z,1016.97
2019-05-15T04:26:39.374Z,1016.97
2019-05-15T04:27:39.072Z,1017.02
2019-05-15T04:28:41.237Z,1017.02
2019-05-15T04:29:39.797Z,1017.02
2019-05-15T04:30:39.224Z,1017.03
2019-05-15T04:31:51.956Z,1017.02
2019-05-15T04:32:39.770Z,1017.03
2019-05-15T04:33:39.922Z,1017.04
2019-05-15T04:34:39.597Z,1017.07
2019-05-15T04:35:40.128Z,1017.10
2019-05-15T04:36:39.570Z,1017.11
2019-05-15T04:37:40.504Z,1017.13
2019-05-15T04:38:39.242Z,1017.13
2019-05-15T04:39:40.035Z,1017.08
2019-05-15T04:40:39.722Z,1017.17
2019-05-15T04:41:39.270Z,1017.13
2019-05-15T04:42:39.839Z,1017.12
2019-05-15T04:43:41.508Z,1017.17
2019-05-15T04:44:39.506Z,1017.16
2019-05-15T04:45:39.263Z,1017.16
2019-05-15T04:46:39.174Z,1017.17
2019-05-15T04:47:39.664Z,1017.20
2019-05-15T04:48:39.933Z,1017.15
2019-05-15T04:49:39.401Z,1017.21
2019-05-15T04:50:39.854Z,1017.14
2019-05-15T04:51:39.075Z,1017.17
2019-05-15T04:52:42.554Z,1017.18
2019-05-15T04:53:39.487Z,1017.18
2019-05-15T04:54:40.235Z,1017.21
2019-05-15T04:55:40.457Z,1017.21
2019-05-15T04:56:39.945Z,1017.20
2019-05-15T04:57:40.254Z,1017.22
2019-05-15T04:58:39.587Z,1017.24
2019-05-15T04:59:39.007Z,1017.21
2019-05-15T05:00:40.018Z,1017.20
2019-05-15T05:01:40.248Z,1017.24
2019-05-15T05:02:40.009Z,1017.19
2019-05-15T05:03:39.434Z,1017.18
2019-05-15T05:04:38.822Z,1017.18
2019-05-15T05:05:38.852Z,1017.20
2019-05-15T05:06:38.740Z,1017.20
2019-05-15T05:07:38.976Z,1017.23
2019-05-15T05:08:39.713Z,1017.20
2019-05-15T05:09:38.966Z,1017.18
2019-05-15T05:10:39.572Z,1017.24
2019-05-15T05:11:38.390Z,1017.25
2019-05-15T05:12:41.707Z,1017.22
2019-05-15T05:13:39.154Z,1017.27
2019-05-15T05:14:39.104Z,1017.22
2019-05-15T05:15:38.893Z,1017.22
2019-05-15T05:16:39.246Z,1017.24
2019-05-15T05:17:39.244Z,1017.21
2019-05-15T05:18:40.964Z,1017.20
2019-05-15T05:19:40.245Z,1017.20
2019-05-15T05:20:38.264Z,1017.20
2019-05-15T05:21:38.562Z,1017.21
2019-05-15T05:22:39.369Z,1017.23
2019-05-15T05:23:37.830Z,1017.25
2019-05-15T05:24:38.526Z,1017.27
2019-05-15T05:25:38.785Z,1017.23
2019-05-15T05:26:38.372Z,1017.28
2019-05-15T05:27:38.307Z,1017.30
2019-05-15T05:28:38.089Z,1017.31
2019-05-15T05:29:38.611Z,1017.29
2019-05-15T05:30:38.600Z,1017.30
2019-05-15T05:31:39.086Z,1017.35
2019-05-15T05:32:38.883Z,1017.34
2019-05-15T05:33:38.229Z,1017.35
2019-05-15T05:34:39.096Z,1017.36
2019-05-15T05:35:38.745Z,1017.35
2019-05-15T05:36:38.676Z,1017.32
2019-05-15T05:37:38.920Z,1017.35
2019-05-15T05:38:38.695Z,1017.38
2019-05-15T05:39:39.537Z,1017.41
2019-05-15T05:40:38.474Z,1017.35
2019-05-15T05:41:39.166Z,1017.33
2019-05-15T05:42:38.814Z,1017.36
2019-05-15T05:43:38.367Z,1017.37
2019-05-15T05:44:38.385Z,1017.36
2019-05-15T05:45:38.307Z,1017.37
2019-05-15T05:46:39.726Z,1017.36
2019-05-15T05:47:38.320Z,1017.38
2019-05-15T05:48:38.482Z,1017.36
2019-05-15T05:49:38.316Z,1017.37
2019-05-15T05:50:38.578Z,1017.37
2019-05-15T05:51:38.709Z,1017.39
2019-05-15T05:52:39.008Z,1017.35
2019-05-15T05:53:38.450Z,1017.37
2019-05-15T05:54:38.265Z,1017.36
2019-05-15T05:55:38.430Z,1017.33
2019-05-15T05:56:37.949Z,1017.28
2019-05-15T05:57:38.319Z,1017.30
2019-05-15T05:58:39.066Z,1017.30
2019-05-15T05:59:38.717Z,1017.32
2019-05-15T06:00:39.331Z,1017.34
2019-05-15T06:01:43.747Z,1017.30
2019-05-15T06:02:47.448Z,1017.31
2019-05-15T06:03:38.574Z,1017.27
2019-05-15T06:04:38.480Z,1017.31
2019-05-15T06:05:38.912Z,1017.25
2019-05-15T06:06:38.406Z,1017.22
2019-05-15T06:07:38.709Z,1017.17
2019-05-15T06:08:38.884Z,1017.21
2019-05-15T06:09:38.089Z,1017.25
2019-05-15T06:10:38.573Z,1017.23
2019-05-15T06:11:38.145Z,1017.23
2019-05-15T06:12:38.898Z,1017.21
2019-05-15T06:13:38.263Z,1017.28
2019-05-15T06:14:38.098Z,1017.26
2019-05-15T06:15:38.082Z,1017.26
2019-05-15T06:16:38.764Z,1017.33
2019-05-15T06:17:39.124Z,1017.32
2019-05-15T06:18:38.747Z,1017.31
2019-05-15T06:19:38.598Z,1017.30
2019-05-15T06:20:39.503Z,1017.32
2019-05-15T06:21:39.357Z,1017.26
2019-05-15T06:22:38.799Z,1017.28
2019-05-15T06:23:44.049Z,1017.24
2019-05-15T06:24:38.002Z,1017.31
2019-05-15T06:25:39.114Z,1017.32
2019-05-15T06:26:38.645Z,1017.31
2019-05-15T06:27:38.949Z,1017.32
2019-05-15T06:28:39.460Z,1017.31
2019-05-15T06:29:38.026Z,1017.27
2019-05-15T06:30:38.598Z,1017.27
2019-05-15T06:31:38.790Z,1017.30
2019-05-15T06:32:39.792Z,1017.27
2019-05-15T06:33:38.362Z,1017.32
2019-05-15T06:34:38.060Z,1017.30
2019-05-15T06:35:39.390Z,1017.33
2019-05-15T06:36:39.328Z,1017.27
2019-05-15T06:37:39.566Z,1017.28
2019-05-15T06:38:39.325Z,1017.24
2019-05-15T06:39:39.037Z,1017.23
2019-05-15T06:40:39.485Z,1017.27
2019-05-15T06:41:39.093Z,1017.24
2019-05-15T06:42:39.348Z,1017.24
2019-05-15T06:43:38.963Z,1017.21
2019-05-15T06:44:38.796Z,1017.26
2019-05-15T06:45:38.103Z,1017.26
2019-05-15T06:46:39.256Z,1017.30
2019-05-15T06:47:39.470Z,1017.26
2019-05-15T06:48:38.089Z,1017.26
2019-05-15T06:49:37.921Z,1017.27
2019-05-15T06:50:38.346Z,1017.25
2019-05-15T06:51:38.004Z,1017.26
2019-05-15T06:52:38.172Z,1017.23
2019-05-15T06:53:38.411Z,1017.18
2019-05-15T06:54:37.949Z,1017.24
2019-05-15T06:55:38.884Z,1017.21
2019-05-15T06:56:38.931Z,1017.23
2019-05-15T06:57:39.645Z,1017.23
2019-05-15T06:58:38.665Z,1017.22
2019-05-15T06:59:38.900Z,1017.23
2019-05-15T07:00:38.989Z,1017.22
2019-05-15T07:01:38.540Z,1017.19
2019-05-15T07:02:38.427Z,1017.19
2019-05-15T07:03:39.370Z,1017.18
2019-05-15T07:04:38.369Z,1017.17
2019-05-15T07:05:38.548Z,1017.16
2019-05-15T07:06:38.247Z,1017.13
2019-05-15T07:07:38.800Z,1017.09
2019-05-15T07:08:38.437Z,1017.17
2019-05-15T07:09:38.107Z,1017.13
2019-05-15T07:10:37.950Z,1017.10
2019-05-15T07:11:38.809Z,1017.08
2019-05-15T07:12:39.114Z,1017.10
2019-05-15T07:13:38.435Z,1017.13
2019-05-15T07:14:38.099Z,1017.06
2019-05-15T07:15:38.536Z,1017.07
2019-05-15T07:16:39.010Z,1017.05
2019-05-15T07:17:39.386Z,1017.05
2019-05-15T07:18:39.149Z,1017.05
2019-05-15T07:19:39.276Z,1017.03
2019-05-15T07:20:39.061Z,1017.04
2019-05-15T07:21:38.845Z,1017.02
2019-05-15T07:22:39.156Z,1017.01
2019-05-15T07:23:38.618Z,1017.02
2019-05-15T07:24:38.379Z,1016.99
2019-05-15T07:25:38.990Z,1017.01
2019-05-15T07:26:39.166Z,1016.96
2019-05-15T07:27:39.071Z,1016.97
2019-05-15T07:28:38.145Z,1016.98
2019-05-15T07:29:38.561Z,1016.97
2019-05-15T07:30:41.108Z,1016.97
2019-05-15T07:31:38.532Z,1016.96
2019-05-15T07:32:39.598Z,1017.01
2019-05-15T07:33:43.174Z,1016.95
2019-05-15T07:34:38.074Z,1016.94
2019-05-15T07:35:38.442Z,1016.94
2019-05-15T07:36:38.990Z,1016.93
2019-05-15T07:37:38.730Z,1016.96
2019-05-15T07:38:39.110Z,1017.01
2019-05-15T07:39:38.251Z,1016.99
2019-05-15T07:40:38.570Z,1016.97
2019-05-15T07:41:39.148Z,1016.95
2019-05-15T07:42:38.627Z,1016.91
2019-05-15T07:43:38.445Z,1016.94
2019-05-15T07:44:38.861Z,1016.98
2019-05-15T07:45:43.393Z,1016.94
2019-05-15T07:46:38.348Z,1016.91
2019-05-15T07:47:38.695Z,1016.90
2019-05-15T07:48:38.562Z,1016.89
2019-05-15T07:49:38.852Z,1016.97
2019-05-15T07:50:38.725Z,1016.86
2019-05-15T07:51:38.244Z,1016.91
2019-05-15T07:52:39.385Z,1016.84
2019-05-15T07:53:38.549Z,1016.79
2019-05-15T07:54:38.426Z,1016.81
2019-05-15T07:55:39.390Z,1016.79
2019-05-15T07:56:38.146Z,1016.75
2019-05-15T07:57:39.407Z,1016.76
2019-05-15T07:58:38.627Z,1016.70
2019-05-15T07:59:38.645Z,1016.76
2019-05-15T08:00:39.503Z,1016.82
2019-05-15T08:01:38.651Z,1016.74
2019-05-15T08:02:38.341Z,1016.73
2019-05-15T08:03:53.326Z,1016.71
2019-05-15T08:04:38.084Z,1016.78
2019-05-15T08:05:42.707Z,1016.76
2019-05-15T08:06:38.814Z,1016.82
2019-05-15T08:07:38.800Z,1016.75
2019-05-15T08:08:39.357Z,1016.75
2019-05-15T08:09:39.051Z,1016.76
2019-05-15T08:10:39.658Z,1016.69
2019-05-15T08:11:39.087Z,1016.75
2019-05-15T08:12:39.216Z,1016.73
2019-05-15T08:13:38.382Z,1016.71
2019-05-15T08:14:38.779Z,1016.71
2019-05-15T08:15:38.241Z,1016.64
2019-05-15T08:16:39.398Z,1016.69
2019-05-15T08:17:59.275Z,1016.67
2019-05-15T08:18:39.327Z,1016.68
2019-05-15T08:19:38.482Z,1016.63
2019-05-15T08:20:38.503Z,1016.69
2019-05-15T08:21:38.614Z,1016.73
2019-05-15T08:22:38.432Z,1016.71
2019-05-15T08:23:39.142Z,1016.70
2019-05-15T08:24:39.100Z,1016.69
2019-05-15T08:25:38.927Z,1016.61
2019-05-15T08:26:38.963Z,1016.62
2019-05-15T08:27:38.380Z,1016.60
2019-05-15T08:28:38.350Z,1016.57
2019-05-15T08:29:38.321Z,1016.62
2019-05-15T08:30:38.715Z,1016.62
2019-05-15T08:31:38.867Z,1016.62
2019-05-15T08:32:38.869Z,1016.66
2019-05-15T08:33:38.883Z,1016.57
2019-05-15T08:34:38.662Z,1016.57
2019-05-15T08:35:38.661Z,1016.60
2019-05-15T08:36:38.540Z,1016.47
2019-05-15T08:37:38.501Z,1016.57
2019-05-15T08:38:38.500Z,1016.50
2019-05-15T08:39:38.234Z,1016.56
2019-05-15T08:40:41.094Z,1016.57
2019-05-15T08:41:39.105Z,1016.51
2019-05-15T08:42:41.721Z,1016.40
2019-05-15T08:43:38.390Z,1016.44
2019-05-15T08:44:38.618Z,1016.41
2019-05-15T08:45:39.147Z,1016.42
2019-05-15T08:46:38.767Z,1016.37
2019-05-15T08:47:38.654Z,1016.38
2019-05-15T08:48:38.502Z,1016.38
2019-05-15T08:49:40.903Z,1016.39
2019-05-15T08:50:39.053Z,1016.38
2019-05-15T08:51:38.157Z,1016.35
2019-05-15T08:52:39.389Z,1016.29
2019-05-15T08:53:38.139Z,1016.31
2019-05-15T08:54:38.398Z,1016.29
2019-05-15T08:55:39.108Z,1016.28
2019-05-15T08:56:39.370Z,1016.23
2019-05-15T08:57:38.444Z,1016.26
2019-05-15T08:58:38.317Z,1016.22
2019-05-15T08:59:38.187Z,1016.18
2019-05-15T09:00:40.123Z,1016.25
2019-05-15T09:01:38.340Z,1016.26
2019-05-15T09:02:38.374Z,1016.22
2019-05-15T09:03:38.177Z,1016.27
2019-05-15T09:04:38.679Z,1016.14
2019-05-15T09:05:38.817Z,1016.17
2019-05-15T09:06:41.472Z,1016.17
2019-05-15T09:07:38.421Z,1016.24
2019-05-15T09:08:39.163Z,1016.15
2019-05-15T09:09:38.402Z,1016.14
2019-05-15T09:10:38.621Z,1016.14
2019-05-15T09:11:38.931Z,1016.15
2019-05-15T09:12:38.878Z,1016.20
2019-05-15T09:13:43.230Z,1016.18
2019-05-15T09:14:38.107Z,1016.19
2019-05-15T09:15:39.560Z,1016.11
2019-05-15T09:16:38.690Z,1016.13
2019-05-15T09:17:39.850Z,1016.11
2019-05-15T09:18:39.172Z,1016.09
2019-05-15T09:19:38.822Z,1016.04
2019-05-15T09:20:38.435Z,1016.04
2019-05-15T09:21:38.833Z,1016.06
2019-05-15T09:22:38.392Z,1016.03
2019-05-15T09:23:38.826Z,1016.06
2019-05-15T09:24:38.003Z,1016.06
2019-05-15T09:25:38.971Z,1016.07
2019-05-15T09:26:40.430Z,1016.06
2019-05-15T09:27:38.395Z,1016.00
2019-05-15T09:28:39.117Z,1016.03
2019-05-15T09:29:38.174Z,1015.94
2019-05-15T09:30:39.158Z,1015.90
2019-05-15T09:31:39.200Z,1015.80
2019-05-15T09:32:39.223Z,1016.03
2019-05-15T09:33:38.738Z,1015.99
2019-05-15T09:34:49.928Z,1016.03
2019-05-15T09:35:39.403Z,1016.00
2019-05-15T09:36:42.209Z,1015.99
2019-05-15T09:37:38.786Z,1015.99
2019-05-15T09:38:39.005Z,1015.99
2019-05-15T09:39:38.191Z,1015.92
2019-05-15T09:40:45.920Z,1015.96
2019-05-15T09:41:38.089Z,1015.88
2019-05-15T09:42:38.824Z,1015.87
2019-05-15T09:43:38.503Z,1015.83
2019-05-15T09:44:39.148Z,1015.88
2019-05-15T09:45:38.212Z,1015.84
2019-05-15T09:46:38.378Z,1015.78
2019-05-15T09:47:39.700Z,1015.86
2019-05-15T09:48:39.092Z,1015.80
2019-05-15T09:49:39.117Z,1015.76
2019-05-15T09:50:39.680Z,1015.72
2019-05-15T09:51:38.543Z,1015.69
2019-05-15T09:52:38.814Z,1015.75
2019-05-15T09:53:39.459Z,1015.72
2019-05-15T09:54:38.664Z,1015.74
2019-05-15T09:55:38.278Z,1015.68
2019-05-15T09:56:38.476Z,1015.70
2019-05-15T09:57:38.627Z,1015.76
2019-05-15T09:58:38.288Z,1015.68
2019-05-15T09:59:39.014Z,1015.72
2019-05-15T10:00:38.627Z,1015.65
2019-05-15T10:01:39.502Z,1015.70
2019-05-15T10:02:39.414Z,1015.61
2019-05-15T10:03:39.139Z,1015.65
2019-05-15T10:04:39.093Z,1015.64
2019-05-15T10:05:38.818Z,1015.63
2019-05-15T10:06:39.075Z,1015.66
2019-05-15T10:07:40.298Z,1015.70
2019-05-15T10:08:39.748Z,1015.56
2019-05-15T10:09:38.867Z,1015.54
2019-05-15T10:10:38.210Z,1015.59
2019-05-15T10:11:38.329Z,1015.54
2019-05-15T10:12:38.639Z,1015.46
2019-05-15T10:13:38.527Z,1015.58
2019-05-15T10:14:38.633Z,1015.54
2019-05-15T10:15:39.004Z,1015.56
2019-05-15T10:16:37.920Z,1015.52
2019-05-15T10:17:37.983Z,1015.46
2019-05-15T10:18:38.966Z,1015.50
2019-05-15T10:19:38.008Z,1015.56
2019-05-15T10:20:37.917Z,1015.51
2019-05-15T10:21:40.090Z,1015.50
2019-05-15T10:22:37.924Z,1015.44
2019-05-15T10:23:40.272Z,1015.41
2019-05-15T10:24:37.995Z,1015.40
2019-05-15T10:25:38.911Z,1015.36
2019-05-15T10:26:39.274Z,1015.37
2019-05-15T10:27:39.824Z,1015.31
2019-05-15T10:28:39.183Z,1015.32
2019-05-15T10:29:38.746Z,1015.32
2019-05-15T10:30:39.496Z,1015.31
2019-05-15T10:31:38.910Z,1015.30
2019-05-15T10:32:39.528Z,1015.29
2019-05-15T10:33:39.244Z,1015.27
2019-05-15T10:34:38.522Z,1015.33
2019-05-15T10:35:39.371Z,1015.26
2019-05-15T10:36:38.659Z,1015.22
2019-05-15T10:37:39.012Z,1015.32
2019-05-15T10:38:39.148Z,1015.29
2019-05-15T10:39:38.494Z,1015.31
2019-05-15T10:40:41.110Z,1015.25
2019-05-15T10:41:38.817Z,1015.28
2019-05-15T10:42:39.889Z,1015.31
2019-05-15T10:43:45.351Z,1015.23
2019-05-15T10:44:39.248Z,1015.13
2019-05-15T10:45:42.302Z,1015.16
2019-05-15T10:46:38.303Z,1015.17
2019-05-15T10:47:38.743Z,1015.17
2019-05-15T10:48:38.633Z,1015.13
2019-05-15T10:49:38.951Z,1015.09
2019-05-15T10:50:38.799Z,1015.10
2019-05-15T10:51:39.541Z,1015.08
2019-05-15T10:52:38.343Z,1015.01
2019-05-15T10:53:39.092Z,1015.10
2019-05-15T10:54:38.192Z,1015.13
2019-05-15T10:55:39.446Z,1015.13
2019-05-15T10:56:38.566Z,1015.06
2019-05-15T10:57:42.826Z,1015.09
2019-05-15T10:58:39.172Z,1014.96
2019-05-15T10:59:38.016Z,1014.97
2019-05-15T11:00:38.011Z,1015.04
2019-05-15T11:01:38.841Z,1015.10
2019-05-15T11:02:39.336Z,1015.08
2019-05-15T11:03:40.044Z,1015.07
2019-05-15T11:04:39.261Z,1015.01
2019-05-15T11:05:45.143Z,1015.01
2019-05-15T11:06:38.441Z,1014.99
2019-05-15T11:07:39.310Z,1014.95
2019-05-15T11:08:40.421Z,1014.99
2019-05-15T11:09:40.615Z,1015.03
2019-05-15T11:10:41.752Z,1015.02
2019-05-15T11:11:37.951Z,1015.00
2019-05-15T11:12:38.023Z,1014.97
2019-05-15T11:13:38.311Z,1014.96
2019-05-15T11:14:38.043Z,1014.90
2019-05-15T11:15:41.984Z,1014.95
2019-05-15T11:16:39.102Z,1014.92
2019-05-15T11:17:38.687Z,1014.94
2019-05-15T11:18:39.367Z,1014.85
2019-05-15T11:19:40.655Z,1014.83
2019-05-15T11:20:40.922Z,1014.87
2019-05-15T11:21:37.916Z,1014.81
2019-05-15T11:22:42.365Z,1014.82
2019-05-15T11:23:39.452Z,1014.82
2019-05-15T11:24:38.546Z,1014.85
2019-05-15T11:25:38.030Z,1014.82
2019-05-15T11:26:39.085Z,1014.83
2019-05-15T11:27:39.103Z,1014.84
2019-05-15T11:28:39.023Z,1014.73
2019-05-15T11:29:38.218Z,1014.78
2019-05-15T11:30:39.236Z,1014.72
2019-05-15T11:31:39.278Z,1014.76
2019-05-15T11:32:39.213Z,1014.85
2019-05-15T11:33:38.484Z,1014.77
2019-05-15T11:34:38.373Z,1014.78
2019-05-15T11:35:40.732Z,1014.74
2019-05-15T11:36:38.651Z,1014.83
2019-05-15T11:37:45.418Z,1014.72
2019-05-15T11:38:38.296Z,1014.79
2019-05-15T11:39:45.177Z,1014.73
2019-05-15T11:40:38.932Z,1014.69
2019-05-15T11:41:38.669Z,1014.67
2019-05-15T11:42:39.459Z,1014.70
2019-05-15T11:43:38.673Z,1014.66
2019-05-15T11:44:38.855Z,1014.66
2019-05-15T11:45:39.073Z,1014.62
2019-05-15T11:46:39.066Z,1014.62
2019-05-15T11:47:39.568Z,1014.61
2019-05-15T11:48:39.193Z,1014.57
2019-05-15T11:49:38.415Z,1014.56
2019-05-15T11:50:39.978Z,1014.47
2019-05-15T11:51:38.459Z,1014.44
2019-05-15T11:52:40.429Z,1014.44
2019-05-15T11:53:39.749Z,1014.42
2019-05-15T11:54:38.617Z,1014.41
2019-05-15T11:55:38.673Z,1014.45
2019-05-15T11:56:39.207Z,1014.27
2019-05-15T11:57:46.096Z,1014.29
2019-05-15T11:58:38.984Z,1014.27
2019-05-15T11:59:44.577Z,1014.40
2019-05-15T12:00:38.472Z,1014.39
2019-05-15T12:01:38.370Z,1014.37
2019-05-15T12:02:38.541Z,1014.46
2019-05-15T12:03:38.687Z,1014.38
2019-05-15T12:04:38.453Z,1014.35
2019-05-15T12:05:38.776Z,1014.38